Time;durP1;ratioP1;P1;durP2;ratioP2;P2;SDS_P1;SDS_P2;PMS_P1;PMS_P2;Temp;Humidity;BMP_temperature;BMP_pressure;BME280_temperature;BME280_humidity;BME280_pressure;Samples;Min_cycle;Max_cycle;Signal;HPM_P1;HPM_P2
2023/09/17 07:01:29;;;;;;;0.40;0.40;;;19.20;99.90;22.00;100931.00;;;;6187227;22;1428905;-73
2023/09/17 07:04:01;;;;;;;0.30;0.30;;;19.20;99.90;22.40;100890.00;;;;6277047;22;20607;-73
2023/09/17 07:06:27;;;;;;;1.30;1.25;;;19.30;99.90;23.20;100929.00;;;;6276594;22;20523;-73
2023/09/17 07:08:58;;;;;;;2.88;2.67;;;19.70;99.90;22.50;100899.00;;;;6276816;22;20160;-73
2023/09/17 07:11:43;;;;;;;0.43;0.43;;;19.50;99.90;22.10;100924.00;;;;6278472;22;20536;-73
2023/09/17 07:14:11;;;;;;;0.40;0.40;;;19.40;99.90;22.90;100924.00;;;;6251146;22;20239;-73
2023/09/17 07:16:56;;;;;;;0.30;0.30;;;19.50;99.90;22.70;100940.00;;;;6277215;22;20151;-73
2023/09/17 07:19:22;;;;;;;1.55;1.48;;;19.40;99.90;23.20;100936.00;;;;6276621;22;20169;-72
2023/09/17 07:21:57;;;;;;;0.47;0.47;;;19.60;99.90;22.80;100923.00;;;;6277129;22;20129;-73
2023/09/17 07:24:36;;;;;;;0.30;0.30;;;19.70;99.90;23.20;100930.00;;;;6251027;22;20164;-73
2023/09/17 07:27:13;;;;;;;0.50;0.50;;;19.60;99.90;23.40;100935.00;;;;6277197;22;20553;-73
2023/09/17 07:29:42;;;;;;;0.60;0.52;;;19.80;99.90;24.30;100932.00;;;;6250704;22;20225;-73
2023/09/17 07:32:15;;;;;;;0.60;0.60;;;20.30;99.90;23.90;100922.00;;;;6276670;22;20183;-72
2023/09/17 07:35:02;;;;;;;1.35;1.35;;;20.30;99.90;24.30;100944.00;;;;6251076;22;20479;-73
2023/09/17 07:37:29;;;;;;;1.08;1.08;;;20.50;99.90;23.40;100947.00;;;;6251770;22;20187;-73
2023/09/17 07:42:56;;;;;;;0.40;0.40;;;20.40;99.90;24.00;100942.00;;;;6277004;22;20253;-73
2023/09/17 07:45:40;;;;;;;1.95;1.08;;;20.30;99.90;24.00;100939.00;;;;6276665;22;20150;-73
2023/09/17 07:48:06;;;;;;;2.10;1.95;;;20.50;99.90;23.70;100947.00;;;;6250879;22;20240;-73
2023/09/17 07:50:34;;;;;;;0.50;0.50;;;20.50;99.90;22.70;100950.00;;;;6250691;22;20157;-73
2023/09/17 07:53:38;;;;;;;2.83;1.55;;;20.10;99.90;22.70;100918.00;;;;6276643;22;20170;-73
2023/09/17 07:56:12;;;;;;;1.10;1.10;;;19.90;99.90;24.00;100954.00;;;;6276145;22;20577;-72
2023/09/17 07:58:42;;;;;;;2.70;2.50;;;20.10;99.90;23.50;100954.00;;;;6276300;22;20138;-72
2023/09/17 08:01:16;;;;;;;0.40;0.40;;;20.10;99.90;24.20;100960.00;;;;6250428;22;20208;-73
2023/09/17 08:04:03;;;;;;;0.30;0.30;;;20.50;99.90;24.40;100960.00;;;;6276232;22;20236;-73
2023/09/17 08:06:49;;;;;;;0.40;0.40;;;20.60;99.90;24.40;100946.00;;;;6276485;22;20458;-73
2023/09/17 08:09:32;;;;;;;0.50;0.50;;;20.60;99.90;24.70;100972.00;;;;6275611;22;20596;-73
2023/09/17 08:12:24;;;;;;;0.70;0.70;;;20.80;99.90;24.90;100983.00;;;;6250318;22;20177;-73
2023/09/17 08:15:29;;;;;;;11.25;1.48;;;21.00;99.90;23.20;100964.00;;;;6274079;22;20156;-73
2023/09/17 08:18:09;;;;;;;0.95;0.95;;;20.60;99.90;24.60;100982.00;;;;6272192;22;20161;-72
2023/09/17 08:20:36;;;;;;;4.22;3.83;;;20.60;99.90;22.40;100972.00;;;;6250566;22;20164;-73
2023/09/17 08:23:03;;;;;;;1.67;1.60;;;20.10;99.90;23.40;100982.00;;;;6275891;22;20585;-71
2023/09/17 08:25:46;;;;;;;1.98;1.05;;;20.10;99.90;23.40;100968.00;;;;6275197;22;20566;-76
2023/09/17 08:31:01;;;;;;;0.30;0.30;;;20.30;99.90;24.50;100997.00;;;;6275161;22;20164;-77
2023/09/17 08:33:32;;;;;;;1.33;0.93;;;20.50;99.90;23.80;100993.00;;;;6275792;22;20488;-76
2023/09/17 08:35:59;;;;;;;0.40;0.40;;;20.40;99.90;24.60;100990.00;;;;6249876;22;20160;-76
2023/09/17 08:38:37;;;;;;;0.30;0.30;;;20.60;99.90;24.30;100975.00;;;;6277504;22;20173;-76
2023/09/17 08:41:06;;;;;;;0.60;0.60;;;20.70;99.90;24.90;101008.00;;;;6275674;22;20144;-76
2023/09/17 08:43:33;;;;;;;0.30;0.30;;;20.90;99.90;24.40;100986.00;;;;6276498;22;20156;-77
2023/09/17 08:46:07;;;;;;;0.52;0.52;;;20.70;99.90;25.40;101000.00;;;;6275316;22;20253;-77
2023/09/17 08:48:32;;;;;;;0.40;0.40;;;21.00;99.90;24.70;101010.00;;;;6276813;22;20220;-76
2023/09/17 08:50:59;;;;;;;3.53;3.28;;;21.00;99.90;25.10;101006.00;;;;6250294;22;20177;-77
2023/09/17 08:54:05;;;;;;;0.55;0.55;;;21.00;99.90;25.70;101020.00;;;;6275605;22;20169;-77
2023/09/17 08:56:43;;;;;;;0.82;0.82;;;21.40;99.90;25.80;101021.00;;;;6267814;22;20243;-76
2023/09/17 08:59:23;;;;;;;2.30;1.85;;;21.60;99.90;25.70;100999.00;;;;6275922;22;20141;-77
2023/09/17 09:01:53;;;;;;;0.40;0.40;;;21.60;99.90;24.80;100994.00;;;;6275269;22;20210;-76
2023/09/17 09:04:22;;;;;;;1.30;1.30;;;21.40;99.90;25.90;101000.00;;;;6275586;22;20630;-69
2023/09/17 09:07:08;;;;;;;2.72;2.58;;;21.60;99.90;26.20;101003.00;;;;6249791;22;20157;-76
2023/09/17 09:09:36;;;;;;;0.63;0.63;;;22.00;99.90;24.30;100965.00;;;;6249921;22;20156;-74
2023/09/17 09:12:02;;;;;;;1.63;1.52;;;21.50;99.90;23.70;100977.00;;;;6250184;22;20237;-74
2023/09/17 09:14:31;;;;;;;3.25;2.75;;;21.00;99.90;23.30;100926.00;;;;6276309;22;20160;-74
2023/09/17 09:17:00;;;;;;;3.90;2.47;;;20.80;99.90;23.20;100945.00;;;;6274428;22;20248;-74
2023/09/17 09:19:26;;;;;;;0.43;0.43;;;20.70;99.90;23.90;100963.00;;;;6275867;22;20155;-68
2023/09/17 09:21:53;;;;;;;0.30;0.30;;;20.80;99.90;24.70;100970.00;;;;6275738;22;20148;-74
2023/09/17 09:24:26;;;;;;;2.05;1.55;;;21.10;99.90;25.30;100981.00;;;;6275651;22;20157;-75
2023/09/17 09:27:00;;;;;;;0.40;0.40;;;21.30;99.90;26.00;100992.00;;;;6250380;22;20149;-75
2023/09/17 09:29:32;;;;;;;0.30;0.30;;;21.70;99.90;25.50;101000.00;;;;6250005;22;20241;-76
2023/09/17 09:31:59;;;;;;;7.93;7.53;;;21.80;99.90;25.90;101012.00;;;;6275508;22;20173;-76
2023/09/17 09:34:27;;;;;;;0.30;0.30;;;22.00;99.90;26.20;101027.00;;;;6275612;22;20137;-75
2023/09/17 09:37:10;;;;;;;0.40;0.40;;;22.20;99.90;25.50;101010.00;;;;6275173;22;20137;-74
2023/09/17 09:39:37;;;;;;;2.45;2.35;;;21.80;99.90;26.20;101029.00;;;;6249230;22;20156;-75
2023/09/17 09:42:27;;;;;;;14.40;3.00;;;22.00;99.90;24.40;101004.00;;;;6249403;22;20176;-75
2023/09/17 09:44:54;;;;;;;0.30;0.30;;;21.60;99.90;24.40;100994.00;;;;6250211;22;20454;-79
2023/09/17 09:47:25;;;;;;;7.22;2.58;;;21.30;99.90;25.20;101004.00;;;;6277042;22;20141;-74
2023/09/17 09:50:23;;;;;;;1.48;1.15;;;21.40;99.90;25.20;101003.00;;;;6275649;22;20480;-74
2023/09/17 09:52:49;;;;;;;2.00;1.90;;;21.80;99.90;26.10;100957.00;;;;6249833;22;20185;-73
2023/09/17 09:55:15;;;;;;;1.30;1.30;;;21.90;99.90;26.40;101012.00;;;;6250022;22;20491;-71
2023/09/17 09:57:57;;;;;;;1.75;1.65;;;22.20;99.90;26.00;100901.00;;;;6248851;22;20161;-80
2023/09/17 10:00:32;;;;;;;0.77;0.77;;;22.30;99.90;25.00;100991.00;;;;6275281;22;20545;-78
2023/09/17 10:02:58;;;;;;;1.75;1.65;;;22.00;99.90;26.30;101015.00;;;;6274720;22;20163;-79
2023/09/17 10:05:37;;;;;;;2.05;1.85;;;22.30;99.90;26.00;101017.00;;;;6249373;22;20179;-79
2023/09/17 10:08:11;;;;;;;3.42;3.08;;;22.20;99.90;26.10;100977.00;;;;6276379;22;20207;-81
2023/09/17 10:10:38;;;;;;;0.68;0.68;;;22.30;99.90;26.40;100980.00;;;;6274859;22;20167;-78
2023/09/17 10:13:10;;;;;;;2.45;2.00;;;22.30;99.90;24.40;100952.00;;;;6249451;22;20169;-75
2023/09/17 10:15:37;;;;;;;2.33;1.85;;;21.90;99.90;25.00;100990.00;;;;6248545;22;20157;-75
2023/09/17 10:18:12;;;;;;;0.30;0.30;;;21.80;99.90;24.20;100965.00;;;;6274731;22;20160;-75
2023/09/17 10:20:42;;;;;;;4.15;2.15;;;21.20;99.90;23.50;100958.00;;;;6274488;22;20547;-79
2023/09/17 10:33:34;;;;;;;0.20;0.20;;;20.50;99.90;23.60;100985.00;;;;5088864;27;21137;-65
2023/09/17 10:36:02;;;;;;;1.20;1.15;;;20.60;99.90;23.20;100971.00;;;;5088213;28;20196;-66
2023/09/17 10:38:35;;;;;;;0.20;0.20;;;20.60;99.90;24.80;100934.00;;;;5088642;28;20176;-66
2023/09/17 10:41:05;;;;;;;0.82;0.82;;;21.00;99.90;26.00;100966.00;;;;5085892;28;20547;-66
2023/09/17 10:43:46;;;;;;;0.50;0.50;;;21.70;99.90;26.70;100974.00;;;;5085223;28;20177;-68
2023/09/17 10:46:17;;;;;;;0.90;0.90;;;22.40;99.90;25.80;100983.00;;;;5094481;28;20185;-66
2023/09/17 10:48:44;;;;;;;0.30;0.30;;;22.30;99.90;25.70;100942.00;;;;5088684;28;20677;-66
2023/09/17 10:51:12;;;;;;;0.70;0.70;;;22.20;99.90;25.70;100964.00;;;;5071385;28;20192;-66
2023/09/17 10:53:38;;;;;;;0.47;0.47;;;22.10;99.90;25.70;100968.00;;;;5089136;28;20188;-66
2023/09/17 10:56:25;;;;;;;1.30;1.30;;;22.30;99.90;26.00;100974.00;;;;5089164;28;20173;-68
2023/09/17 10:58:52;;;;;;;0.20;0.20;;;22.30;99.90;26.70;100977.00;;;;5093117;28;20176;-68
2023/09/17 11:01:32;;;;;;;0.77;0.77;;;22.80;99.90;27.20;100992.00;;;;5088872;28;20197;-68
2023/09/17 11:04:05;;;;;;;3.60;1.85;;;23.20;99.90;28.00;101000.00;;;;5088657;28;20196;-68
2023/09/17 11:06:41;;;;;;;4.28;3.15;;;23.70;99.90;27.40;100981.00;;;;5071704;28;20193;-68
2023/09/17 11:09:14;;;;;;;0.50;0.50;;;23.60;99.90;29.30;100994.00;;;;5088143;28;20188;-68
2023/09/17 11:12:16;;;;;;;0.75;0.75;;;24.50;99.90;29.30;101006.00;;;;5072798;28;20227;-68
2023/09/17 11:14:48;;;;;;;1.55;1.45;;;25.50;99.90;27.30;100989.00;;;;5102545;28;20177;-66
2023/09/17 11:17:31;;;;;;;6.35;5.72;;;24.50;99.90;26.40;100985.00;;;;5085158;28;20260;-68
2023/09/17 11:20:16;;;;;;;4.43;4.05;;;23.90;99.90;27.70;100991.00;;;;5083522;28;20185;-68
2023/09/17 11:22:50;;;;;;;2.33;2.13;;;24.00;99.90;25.20;100974.00;;;;5079633;28;20662;-68
2023/09/17 11:25:37;;;;;;;12.18;9.07;;;23.40;99.90;26.80;100970.00;;;;5085237;28;20188;-68
2023/09/17 11:28:18;;;;;;;11.98;5.68;;;23.40;99.90;26.20;100970.00;;;;5084874;28;20252;-68
2023/09/17 11:31:02;;;;;;;0.38;0.38;;;23.60;99.90;27.80;100957.00;;;;5087973;28;20243;-68
2023/09/17 11:33:29;;;;;;;0.35;0.35;;;23.80;99.90;28.20;101004.00;;;;5088334;28;20185;-68
2023/09/17 11:36:01;;;;;;;0.73;0.73;;;24.40;99.90;27.80;100997.00;;;;5088301;28;20256;-68
2023/09/17 11:38:31;;;;;;;0.75;0.75;;;24.20;99.90;29.20;101009.00;;;;5087768;28;20173;-68
2023/09/17 11:41:10;;;;;;;7.05;1.95;;;24.80;99.90;27.10;100988.00;;;;5088135;28;20173;-68
2023/09/17 11:43:55;;;;;;;2.00;1.88;;;24.60;99.90;28.70;101001.00;;;;5081620;28;20203;-68
2023/09/17 11:46:21;;;;;;;1.33;1.33;;;24.40;99.90;30.20;101023.00;;;;5074459;28;20196;-68
2023/09/17 11:48:47;;;;;;;4.47;4.03;;;25.50;99.90;28.60;101003.00;;;;5074053;28;20576;-68
2023/09/17 11:51:28;;;;;;;0.82;0.82;;;25.50;99.90;29.90;101000.00;;;;5073856;28;20185;-68
2023/09/17 11:54:06;;;;;;;0.95;0.95;;;25.90;99.90;30.00;101025.00;;;;5074289;28;20182;-68
2023/09/17 11:56:52;;;;;;;2.70;1.23;;;26.00;99.90;26.30;100936.00;;;;5086141;28;20189;-68
2023/09/17 11:59:19;;;;;;;0.60;0.55;;;24.40;99.90;28.10;100990.00;;;;5057746;28;20552;-68
2023/09/17 12:01:49;;;;;;;0.55;0.55;;;24.20;99.90;29.30;101011.00;;;;5075152;28;20185;-68
2023/09/17 12:04:40;;;;;;;9.23;4.80;;;25.10;99.90;29.50;100987.00;;;;5072604;28;20231;-68
2023/09/17 12:07:18;;;;;;;0.20;0.20;;;25.60;99.90;29.20;101000.00;;;;5090998;28;20196;-68
2023/09/17 12:12:12;;;;;;;4.25;2.70;;;25.70;99.90;28.70;101016.00;;;;5073411;28;20209;-69
2023/09/17 12:14:39;;;;;;;0.20;0.20;;;25.50;99.90;30.20;101013.00;;;;5074871;28;20181;-73
2023/09/17 12:17:05;;;;;;;5.85;4.20;;;25.70;99.90;27.00;100977.00;;;;5076029;28;20185;-76
2023/09/17 12:19:34;;;;;;;0.30;0.30;;;24.90;99.90;26.50;100977.00;;;;5071854;28;20723;-75
2023/09/17 12:22:10;;;;;;;0.10;0.10;;;23.80;99.90;26.80;100979.00;;;;5056411;28;20246;-73
2023/09/17 12:24:54;;;;;;;0.65;0.65;;;23.70;99.90;27.30;100975.00;;;;5070036;28;20276;-74
2023/09/17 12:29:58;;;;;;;1.15;0.77;;;24.30;99.90;27.70;100973.00;;;;5071662;28;20217;-73
2023/09/17 12:32:59;;;;;;;1.60;1.58;;;24.40;99.90;26.40;100907.00;;;;5053224;28;20213;-72
2023/09/17 12:35:25;;;;;;;0.47;0.30;;;23.90;99.90;28.20;100969.00;;;;5056428;28;20238;-73
2023/09/17 12:38:00;;;;;;;1.15;0.90;;;24.60;99.90;28.20;100956.00;;;;5070139;28;20182;-73
2023/09/17 12:40:34;;;;;;;1.10;1.10;;;24.80;99.90;27.30;100949.00;;;;5070524;28;20188;-72
2023/09/17 12:43:03;;;;;;;0.10;0.10;;;24.50;99.90;27.40;100912.00;;;;5069298;28;20181;-72
2023/09/17 12:45:29;;;;;;;0.10;0.10;;;24.30;99.90;29.20;100947.00;;;;5071528;28;20193;-73
2023/09/17 12:47:55;;;;;;;13.45;3.35;;;24.80;99.90;26.40;100906.00;;;;5069610;28;20177;-75
2023/09/17 12:50:28;;;;;;;1.52;1.42;;;24.20;99.90;27.90;100945.00;;;;5073009;28;20213;-75
2023/09/17 12:52:54;;;;;;;0.10;0.10;;;24.20;99.90;28.60;100954.00;;;;5088325;28;20721;-76
2023/09/17 12:55:39;;;;;;;3.03;1.48;;;24.70;99.90;28.40;100918.00;;;;5072942;28;20200;-74
2023/09/17 12:58:22;;;;;;;1.40;0.73;;;24.90;99.90;28.70;100907.00;;;;5072072;28;20208;-75
2023/09/17 13:01:14;;;;;;;0.50;0.45;;;24.90;99.90;28.90;100939.00;;;;5069571;28;20265;-75
2023/09/17 13:04:12;;;;;;;0.20;0.20;;;25.10;99.90;30.00;100936.00;;;;5051649;28;20206;-75
2023/09/17 13:06:47;;;;;;;0.10;0.10;;;25.50;99.90;29.70;100904.00;;;;5064963;28;20283;-75
2023/09/17 13:09:13;;;;;;;0.10;0.10;;;25.70;99.90;29.60;100928.00;;;;5073770;28;20184;-75
2023/09/17 13:11:39;;;;;;;0.90;0.90;;;25.70;99.90;29.80;100942.00;;;;5070944;28;20201;-73
2023/09/17 13:14:31;;;;;;;0.10;0.10;;;25.80;99.90;29.60;100925.00;;;;5071944;28;20589;-71
2023/09/17 13:17:05;;;;;;;0.10;0.10;;;25.70;99.90;29.50;100935.00;;;;5084430;28;20252;-71
2023/09/17 13:19:31;;;;;;;0.10;0.10;;;25.70;99.90;29.00;100892.00;;;;5052498;28;20190;-71
2023/09/17 13:21:58;;;;;;;0.30;0.30;;;25.40;99.90;29.30;100923.00;;;;5070797;28;20185;-70
2023/09/17 13:24:25;;;;;;;1.30;0.63;;;25.50;99.90;28.50;100918.00;;;;5054929;28;20197;-72
2023/09/17 13:27:00;;;;;;;0.20;0.20;;;25.00;99.90;28.60;100919.00;;;;5072537;28;20275;-72
2023/09/17 13:29:40;;;;;;;0.10;0.10;;;25.20;99.90;29.50;100893.00;;;;5055250;28;20205;-72
2023/09/17 13:32:11;;;;;;;0.10;0.10;;;25.30;99.90;29.20;100917.00;;;;5071557;28;20213;-72
2023/09/17 13:34:46;;;;;;;0.20;0.20;;;25.30;99.90;28.90;100886.00;;;;5071666;28;20189;-72
2023/09/17 13:37:13;;;;;;;0.20;0.20;;;25.20;99.90;30.10;100864.00;;;;5070766;28;20205;-73
2023/09/17 13:39:41;;;;;;;0.20;0.20;;;25.60;99.90;29.30;100924.00;;;;5050899;28;20842;-72
2023/09/17 13:42:10;;;;;;;0.73;0.35;;;25.60;99.90;29.80;100921.00;;;;5066872;28;20277;-72
2023/09/17 13:44:39;;;;;;;0.20;0.20;;;25.60;99.90;30.20;100943.00;;;;5055694;28;20185;-72
2023/09/17 13:47:11;;;;;;;0.10;0.10;;;25.80;99.90;30.40;100946.00;;;;5071614;28;20200;-72
2023/09/17 13:50:05;;;;;;;0.10;0.10;;;26.10;99.90;30.80;100948.00;;;;5054748;28;20186;-72
2023/09/17 13:52:31;;;;;;;0.55;0.55;;;26.30;99.90;30.80;100966.00;;;;5071745;28;20209;-72
2023/09/17 13:54:57;;;;;;;0.28;0.28;;;26.40;99.90;29.30;100942.00;;;;5072045;28;20180;-72
2023/09/17 13:57:23;;;;;;;0.63;0.63;;;25.90;99.90;29.10;100940.00;;;;5072170;28;20581;-72
2023/09/17 13:59:49;;;;;;;0.10;0.10;;;25.60;99.90;29.50;100932.00;;;;5076943;28;20647;-72
2023/09/17 14:02:16;;;;;;;0.40;0.40;;;25.50;99.90;29.10;100911.00;;;;5072850;28;20200;-72
2023/09/17 14:04:44;;;;;;;0.55;0.55;;;25.60;99.90;28.90;100920.00;;;;5071917;28;20192;-72
2023/09/17 14:07:10;;;;;;;3.00;1.98;;;25.40;99.90;28.70;100885.00;;;;5053105;28;20193;-72
2023/09/17 14:09:36;;;;;;;0.30;0.30;;;25.20;99.90;29.00;100918.00;;;;5073189;28;20178;-74
2023/09/17 14:12:03;;;;;;;0.95;0.80;;;25.20;99.90;28.30;100904.00;;;;5071674;28;20212;-74
2023/09/17 14:14:31;;;;;;;0.95;0.95;;;25.00;99.90;28.70;100891.00;;;;5071581;28;20182;-74
2023/09/17 14:16:57;;;;;;;0.15;0.15;;;25.00;99.90;29.00;100869.00;;;;5070231;28;20185;-74
2023/09/17 14:19:23;;;;;;;0.40;0.40;;;25.30;99.90;30.10;100922.00;;;;5070581;28;20184;-74
2023/09/17 14:21:49;;;;;;;0.17;0.17;;;25.60;99.90;30.50;100909.00;;;;5076531;28;20233;-72
2023/09/17 14:24:15;;;;;;;0.10;0.10;;;26.10;99.90;28.90;100908.00;;;;5070362;28;20656;-74
2023/09/17 14:26:41;;;;;;;0.20;0.20;;;25.90;99.90;29.40;100900.00;;;;5054508;28;20189;-74
2023/09/17 14:29:07;;;;;;;0.10;0.10;;;25.60;99.90;29.50;100911.00;;;;5051924;28;20182;-72
2023/09/17 14:31:33;;;;;;;0.40;0.40;;;25.60;99.90;30.00;100901.00;;;;5048901;28;20303;-74
2023/09/17 14:33:59;;;;;;;0.73;0.73;;;25.70;99.90;30.10;100903.00;;;;5071259;28;20592;-74
2023/09/17 14:36:31;;;;;;;0.35;0.35;;;26.00;99.90;30.30;100884.00;;;;5065135;28;20526;-72
2023/09/17 14:38:56;;;;;;;0.25;0.25;;;26.10;99.90;30.30;100870.00;;;;5070005;28;20299;-72
2023/09/17 14:41:27;;;;;;;0.20;0.20;;;26.10;99.90;29.40;100848.00;;;;5065686;28;20595;-72
2023/09/17 14:43:53;;;;;;;0.65;0.65;;;25.80;99.90;29.40;100878.00;;;;5047396;28;20185;-72
2023/09/17 14:46:22;;;;;;;0.10;0.10;;;25.90;99.90;29.80;100887.00;;;;5065639;28;20185;-72
2023/09/17 14:48:48;;;;;;;0.20;0.20;;;25.80;99.90;29.70;100896.00;;;;5070189;28;20557;-72
2023/09/17 14:51:17;;;;;;;0.25;0.25;;;25.80;99.90;29.90;100884.00;;;;5066699;28;20177;-72
2023/09/17 14:53:43;;;;;;;0.10;0.10;;;25.80;99.90;29.00;100890.00;;;;5070777;28;20178;-72
2023/09/17 14:56:09;;;;;;;0.65;0.65;;;25.70;99.90;28.90;100867.00;;;;5071914;28;20192;-72
2023/09/17 14:58:42;;;;;;;0.20;0.20;;;25.40;99.90;29.20;100869.00;;;;5066568;28;20186;-72
2023/09/17 15:01:08;;;;;;;0.20;0.20;;;25.40;99.90;30.00;100846.00;;;;5069805;28;20264;-72
2023/09/17 15:03:36;;;;;;;0.20;0.20;;;25.60;99.90;29.10;100865.00;;;;5069948;28;20269;-72
2023/09/17 15:06:12;;;;;;;0.70;0.70;;;25.40;99.90;29.70;100883.00;;;;5053513;28;20629;-72
2023/09/17 15:08:45;;;;;;;0.20;0.20;;;25.60;99.90;30.00;100844.00;;;;5068437;28;20280;-72
2023/09/17 15:11:19;;;;;;;0.68;0.68;;;25.90;99.90;30.30;100853.00;;;;5066742;28;20545;-72
2023/09/17 15:14:05;;;;;;;0.55;0.55;;;26.00;99.90;30.20;100871.00;;;;5070209;28;20188;-72
2023/09/17 15:16:56;;;;;;;0.20;0.20;;;26.00;99.90;30.20;100888.00;;;;5067863;28;20225;-72
2023/09/17 15:19:24;;;;;;;0.25;0.25;;;26.20;99.90;29.40;100878.00;;;;5041508;28;20280;-72
2023/09/17 15:22:10;;;;;;;0.77;0.77;;;25.90;99.90;29.80;100880.00;;;;5075188;28;20225;-72
2023/09/17 15:24:42;;;;;;;0.82;0.82;;;25.80;99.90;30.30;100868.00;;;;5061588;28;20266;-72
2023/09/17 15:27:29;;;;;;;0.20;0.20;;;26.00;99.90;29.90;100832.00;;;;5080597;28;20270;-72
2023/09/17 15:29:55;;;;;;;0.68;0.68;;;25.70;99.90;30.00;100844.00;;;;5063804;28;20182;-72
2023/09/17 15:32:40;;;;;;;0.20;0.20;;;25.80;99.90;29.40;100803.00;;;;5075640;28;20221;-72
2023/09/17 15:35:14;;;;;;;0.55;0.55;;;25.60;99.90;30.30;100877.00;;;;5073958;28;20189;-72
2023/09/17 15:38:11;;;;;;;0.30;0.30;;;25.90;99.90;29.60;100868.00;;;;5069402;28;20681;-72
2023/09/17 15:40:40;;;;;;;0.20;0.20;;;25.80;99.90;29.80;100835.00;;;;5073108;28;20217;-72
2023/09/17 15:43:14;;;;;;;0.30;0.30;;;25.70;99.90;30.10;100853.00;;;;5074308;28;20272;-72
2023/09/17 15:45:57;;;;;;;0.50;0.50;;;25.90;99.90;29.10;100829.00;;;;5067820;28;20713;-72
2023/09/17 15:48:30;;;;;;;0.50;0.50;;;25.40;99.90;28.80;100859.00;;;;5056236;28;20276;-75
2023/09/17 15:51:03;;;;;;;0.28;0.28;;;25.30;99.90;29.70;100857.00;;;;5062372;28;20219;-74
2023/09/17 15:53:32;;;;;;;0.57;0.57;;;25.50;99.90;29.10;100852.00;;;;5057437;28;20572;-75
2023/09/17 15:56:04;;;;;;;0.47;0.47;;;25.50;99.90;29.20;100858.00;;;;5073903;28;20189;-74
2023/09/17 15:58:33;;;;;;;0.43;0.43;;;25.30;99.90;29.80;100854.00;;;;5049043;28;20185;-75
2023/09/17 16:00:59;;;;;;;0.65;0.40;;;25.40;99.90;29.20;100848.00;;;;5074672;28;20575;-75
2023/09/17 16:03:33;;;;;;;0.20;0.20;;;25.30;99.90;28.90;100845.00;;;;5074206;28;20291;-75
2023/09/17 16:06:01;;;;;;;0.25;0.25;;;25.20;99.90;28.90;100839.00;;;;5073769;28;20592;-77
2023/09/17 16:08:37;;;;;;;0.20;0.20;;;25.00;99.90;29.40;100846.00;;;;5073132;28;20191;-75
2023/09/17 16:11:08;;;;;;;0.25;0.25;;;25.20;99.90;29.40;100812.00;;;;5056090;28;20204;-76
2023/09/17 16:13:44;;;;;;;0.20;0.20;;;25.30;99.90;28.40;100844.00;;;;5073576;28;20283;-76
2023/09/17 16:16:16;;;;;;;0.75;0.75;;;25.20;99.90;29.00;100852.00;;;;5081870;28;20192;-76
2023/09/17 16:19:36;;;;;;;0.50;0.50;;;25.00;99.90;28.80;100810.00;;;;5074236;28;20277;-75
2023/09/17 16:22:06;;;;;;;0.40;0.40;;;25.00;99.90;29.00;100815.00;;;;5073084;28;20189;-76
2023/09/17 16:24:40;;;;;;;0.30;0.30;;;25.10;99.90;28.40;100810.00;;;;5076761;28;20192;-76
2023/09/17 16:27:15;;;;;;;0.20;0.20;;;24.90;99.90;29.20;100792.00;;;;5071928;28;20534;-76
2023/09/17 16:29:51;;;;;;;0.30;0.30;;;25.00;99.90;27.70;100769.00;;;;5077192;28;20173;-76
2023/09/17 16:32:38;;;;;;;0.30;0.30;;;24.70;99.90;28.70;100801.00;;;;5088688;28;20227;-76
2023/09/17 16:35:09;;;;;;;0.30;0.30;;;24.70;99.90;28.20;100757.00;;;;5091794;28;20186;-76
2023/09/17 16:38:13;;;;;;;0.82;0.77;;;24.70;99.90;28.20;100791.00;;;;5056883;28;20648;-76
2023/09/17 16:41:19;;;;;;;2.10;1.55;;;24.80;99.90;29.00;100791.00;;;;5049957;28;20189;-76
2023/09/17 16:44:11;;;;;;;0.50;0.50;;;24.70;99.90;28.30;100774.00;;;;5062869;28;20643;-76
2023/09/17 16:46:57;;;;;;;0.77;0.77;;;24.70;99.90;28.40;100757.00;;;;5055219;28;20557;-76
2023/09/17 16:49:38;;;;;;;2.53;2.33;;;24.70;99.90;28.50;100753.00;;;;5073827;28;20189;-76
2023/09/17 16:52:26;;;;;;;3.72;1.00;;;24.60;99.90;27.00;100730.00;;;;5056901;28;20216;-76
2023/09/17 16:55:12;;;;;;;0.77;0.77;;;24.30;99.90;26.60;100714.00;;;;5092835;28;20271;-76
2023/09/17 16:58:00;;;;;;;0.60;0.60;;;23.90;99.90;26.80;100720.00;;;;5072616;28;20189;-76
2023/09/17 17:00:48;;;;;;;1.23;1.20;;;23.80;99.90;27.40;100691.00;;;;5078617;28;20193;-76
2023/09/17 17:03:34;;;;;;;0.20;0.20;;;23.80;99.90;28.30;100711.00;;;;5073002;28;20193;-76
2023/09/17 17:06:18;;;;;;;0.50;0.50;;;24.20;99.90;28.40;100692.00;;;;5074093;28;20185;-76
2023/09/17 17:08:46;;;;;;;1.10;1.10;;;24.40;99.90;28.00;100685.00;;;;5071709;28;20189;-76
2023/09/17 17:11:30;;;;;;;3.40;2.47;;;24.40;99.90;27.90;100711.00;;;;5072920;28;20546;-76
2023/09/17 17:14:00;;;;;;;0.55;0.55;;;24.20;99.90;28.30;100711.00;;;;5063874;28;20181;-76
2023/09/17 17:16:44;;;;;;;0.50;0.50;;;24.30;99.90;27.80;100708.00;;;;5072796;28;20188;-76
2023/09/17 17:19:12;;;;;;;0.90;0.77;;;24.30;99.90;27.20;100699.00;;;;5071344;28;20331;-76
2023/09/17 17:21:41;;;;;;;0.40;0.40;;;24.00;99.90;27.30;100661.00;;;;5074230;28;20188;-76
2023/09/17 17:24:07;;;;;;;0.82;0.82;;;23.80;99.90;27.50;100661.00;;;;5055401;28;20191;-76
2023/09/17 17:26:39;;;;;;;0.93;0.55;;;23.80;99.90;28.30;100702.00;;;;5072316;28;20181;-76
2023/09/17 17:29:08;;;;;;;1.38;0.88;;;24.00;99.90;28.20;100700.00;;;;5071806;28;20594;-76
2023/09/17 17:31:40;;;;;;;0.30;0.30;;;24.20;99.90;28.20;100717.00;;;;5073260;28;20201;-76
2023/09/17 17:34:06;;;;;;;0.30;0.30;;;24.20;99.90;28.10;100685.00;;;;5054817;28;20216;-76
2023/09/17 17:36:35;;;;;;;2.15;0.90;;;24.00;99.90;28.10;100676.00;;;;5071972;28;20329;-76
2023/09/17 17:39:04;;;;;;;0.75;0.75;;;24.10;99.90;28.10;100700.00;;;;5078055;28;20554;-76
2023/09/17 17:41:37;;;;;;;1.45;1.15;;;24.10;99.90;27.10;100684.00;;;;5068639;28;20185;-75
2023/09/17 17:44:04;;;;;;;0.85;0.77;;;23.70;99.90;28.00;100707.00;;;;5068807;28;20189;-76
2023/09/17 17:46:47;;;;;;;2.80;2.60;;;23.90;99.90;27.10;100702.00;;;;5069916;28;20606;-76
2023/09/17 17:49:32;;;;;;;0.43;0.43;;;23.80;99.90;27.30;100667.00;;;;5070739;28;20185;-76
2023/09/17 17:52:06;;;;;;;0.30;0.30;;;23.80;99.90;27.70;100698.00;;;;5054055;28;20775;-76
2023/09/17 17:54:54;;;;;;;0.30;0.30;;;23.80;99.90;27.70;100698.00;;;;5070324;28;20181;-76
2023/09/17 17:57:26;;;;;;;0.50;0.50;;;23.80;99.90;27.60;100683.00;;;;5065721;28;20371;-76
2023/09/17 18:00:10;;;;;;;0.70;0.70;;;23.80;99.90;27.20;100647.00;;;;5071234;28;20182;-76
2023/09/17 18:02:59;;;;;;;0.98;0.98;;;23.60;99.90;27.40;100675.00;;;;5071729;28;20205;-76
2023/09/17 18:05:35;;;;;;;0.68;0.68;;;23.60;99.90;26.90;100645.00;;;;5071255;28;20186;-76
2023/09/17 18:08:08;;;;;;;0.40;0.40;;;23.50;99.90;26.90;100666.00;;;;5054736;28;20255;-76
2023/09/17 18:10:36;;;;;;;1.15;1.05;;;23.30;99.90;26.80;100669.00;;;;5065319;28;20269;-76
2023/09/17 18:13:15;;;;;;;0.30;0.30;;;23.20;99.90;27.30;100664.00;;;;5071868;28;20678;-76
2023/09/17 18:16:08;;;;;;;0.30;0.30;;;23.30;99.90;27.40;100672.00;;;;5066466;28;20187;-76
2023/09/17 18:18:36;;;;;;;0.40;0.40;;;23.30;99.90;27.90;100678.00;;;;5071141;28;20284;-76
2023/09/17 18:21:11;;;;;;;0.40;0.40;;;23.50;99.90;27.90;100683.00;;;;5071188;28;20635;-76
2023/09/17 18:23:42;;;;;;;0.38;0.38;;;23.60;99.90;28.10;100680.00;;;;5071057;28;20268;-76
2023/09/17 18:26:28;;;;;;;0.40;0.40;;;23.90;99.90;27.70;100679.00;;;;5070967;28;20223;-76
2023/09/17 18:28:58;;;;;;;1.52;1.48;;;23.70;99.90;27.40;100666.00;;;;5055288;28;20191;-76
2023/09/17 18:31:24;;;;;;;0.40;0.40;;;23.60;99.90;27.80;100676.00;;;;5087264;28;20574;-76
2023/09/17 18:33:53;;;;;;;1.58;0.98;;;23.60;99.90;28.00;100686.00;;;;5071747;28;20261;-76
2023/09/17 18:36:27;;;;;;;0.45;0.45;;;23.80;99.90;27.30;100670.00;;;;5065981;28;20183;-76
2023/09/17 18:38:53;;;;;;;0.30;0.30;;;23.50;99.90;27.60;100676.00;;;;5082337;28;20572;-76
2023/09/17 18:41:42;;;;;;;0.40;0.40;;;23.50;99.90;27.60;100663.00;;;;5067017;28;20182;-76